Time;durP1;ratioP1;P1;durP2;ratioP2;P2;SDS_P1;SDS_P2;PMS_P1;PMS_P2;Temp;Humidity;BMP_temperature;BMP_pressure;BME280_temperature;BME280_humidity;BME280_pressure;Samples;Min_cycle;Max_cycle;Signal;HPM_P1;HPM_P2
2023/11/12 00:01:11;;;;;;;3.40;1.48;;;3.70;99.90;;;;;;5002336;28;20057;-66
2023/11/12 00:03:36;;;;;;;1.95;1.58;;;3.70;99.90;;;;;;5000696;28;20054;-67
2023/11/12 00:06:02;;;;;;;2.35;1.77;;;3.80;99.90;;;;;;5034541;28;20048;-66
2023/11/12 00:08:28;;;;;;;2.40;1.75;;;3.70;99.90;;;;;;4999809;28;20042;-67
2023/11/12 00:10:54;;;;;;;2.75;1.50;;;3.70;99.90;;;;;;5003326;28;20095;-67
2023/11/12 00:13:20;;;;;;;1.60;1.23;;;3.70;99.90;;;;;;5038979;28;20128;-66
2023/11/12 00:15:45;;;;;;;1.08;0.98;;;3.70;99.90;;;;;;5002595;28;20045;-67
2023/11/12 00:18:11;;;;;;;1.73;1.42;;;3.70;99.90;;;;;;5009022;28;20374;-67
2023/11/12 00:20:37;;;;;;;2.28;1.63;;;3.70;99.90;;;;;;5002801;28;20070;-67
2023/11/12 00:23:02;;;;;;;7.25;1.75;;;3.80;99.90;;;;;;5000098;28;20498;-67
2023/11/12 00:25:28;;;;;;;2.15;1.73;;;3.80;99.90;;;;;;5004373;28;20073;-66
2023/11/12 00:27:54;;;;;;;3.75;1.65;;;3.80;99.90;;;;;;5007860;28;20050;-67
2023/11/12 00:30:20;;;;;;;18.17;12.05;;;3.70;99.90;;;;;;5008822;28;20037;-67
2023/11/12 00:32:46;;;;;;;6.38;2.53;;;3.90;99.90;;;;;;5037813;28;20047;-67
2023/11/12 00:35:12;;;;;;;4.30;2.08;;;3.90;99.90;;;;;;5044701;28;20042;-67
2023/11/12 00:37:38;;;;;;;3.10;2.00;;;4.00;99.90;;;;;;4998884;28;20412;-66
2023/11/12 00:40:05;;;;;;;2.03;1.38;;;4.00;99.90;;;;;;5004926;28;20041;-67
2023/11/12 00:42:31;;;;;;;5.35;2.15;;;4.00;99.90;;;;;;5009076;28;20085;-67
2023/11/12 00:44:58;;;;;;;2.47;1.55;;;4.10;99.90;;;;;;5004066;28;20082;-67
2023/11/12 00:47:23;;;;;;;2.50;2.17;;;4.10;99.90;;;;;;5006463;28;20401;-67
2023/11/12 00:49:49;;;;;;;2.15;1.67;;;4.20;99.90;;;;;;5039833;28;20046;-67
2023/11/12 00:52:16;;;;;;;2.88;1.95;;;4.20;99.90;;;;;;5001707;28;20060;-67
2023/11/12 00:54:41;;;;;;;3.60;1.80;;;4.30;99.90;;;;;;5007475;28;20045;-67
2023/11/12 00:57:07;;;;;;;1.35;1.25;;;4.40;99.90;;;;;;5010572;28;20478;-67
2023/11/12 00:59:35;;;;;;;3.13;1.60;;;4.40;99.90;;;;;;5008058;28;20401;-67
2023/11/12 01:02:01;;;;;;;1.88;1.60;;;4.50;99.90;;;;;;5037281;28;20379;-67
2023/11/12 01:04:27;;;;;;;3.40;2.35;;;4.50;99.90;;;;;;5040015;28;20049;-67
2023/11/12 01:06:53;;;;;;;2.30;1.45;;;4.60;99.90;;;;;;5034677;28;20101;-67
2023/11/12 01:09:18;;;;;;;2.55;1.48;;;4.50;99.90;;;;;;5007930;28;20541;-67
2023/11/12 01:11:44;;;;;;;1.23;0.93;;;4.60;99.90;;;;;;5008055;28;20117;-67
2023/11/12 01:14:10;;;;;;;2.35;1.77;;;4.60;99.90;;;;;;5002207;28;20038;-67
2023/11/12 01:16:38;;;;;;;2.97;1.98;;;4.60;99.90;;;;;;5008986;28;20065;-67
2023/11/12 01:19:05;;;;;;;5.32;1.10;;;4.60;99.90;;;;;;5006897;28;20509;-67
2023/11/12 01:21:30;;;;;;;2.05;1.65;;;4.60;99.90;;;;;;5007622;28;20053;-67
2023/11/12 01:23:56;;;;;;;3.33;1.38;;;4.70;99.90;;;;;;5034501;28;20046;-67
2023/11/12 01:26:24;;;;;;;1.38;1.05;;;4.70;99.90;;;;;;5039141;28;20405;-67
2023/11/12 01:28:49;;;;;;;3.60;2.10;;;4.80;99.90;;;;;;5008215;28;20038;-67
2023/11/12 01:31:15;;;;;;;3.70;2.35;;;4.80;99.90;;;;;;5006819;28;20430;-67
2023/11/12 01:33:41;;;;;;;2.42;1.70;;;4.90;99.90;;;;;;5001979;28;20050;-67
2023/11/12 01:36:07;;;;;;;2.45;2.05;;;4.90;99.90;;;;;;5023047;28;20038;-67
2023/11/12 01:38:33;;;;;;;2.28;2.08;;;4.90;99.90;;;;;;5006534;28;20038;-67
2023/11/12 01:41:03;;;;;;;3.22;1.45;;;4.90;99.90;;;;;;5030926;28;20038;-67
2023/11/12 01:43:31;;;;;;;2.42;2.13;;;5.00;99.90;;;;;;5003630;28;20045;-67
2023/11/12 01:46:00;;;;;;;2.45;1.90;;;5.00;99.90;;;;;;5019658;28;20461;-67
2023/11/12 01:48:26;;;;;;;2.58;1.60;;;4.90;99.90;;;;;;5004283;28;20054;-67
2023/11/12 01:50:52;;;;;;;2.45;1.80;;;5.00;99.90;;;;;;5001206;28;20455;-67
2023/11/12 01:53:19;;;;;;;3.65;1.88;;;4.90;99.90;;;;;;5005954;28;20050;-67
2023/11/12 01:55:45;;;;;;;2.13;1.75;;;4.90;99.90;;;;;;5035772;28;20104;-67
2023/11/12 01:58:12;;;;;;;3.28;1.73;;;4.90;99.90;;;;;;5003082;28;20038;-67
2023/11/12 02:00:39;;;;;;;1.85;1.50;;;4.80;99.90;;;;;;4998911;28;20042;-67
2023/11/12 02:03:08;;;;;;;2.30;1.70;;;4.90;99.90;;;;;;5003613;28;20057;-67
2023/11/12 02:05:35;;;;;;;1.63;1.05;;;4.70;99.90;;;;;;5000437;28;20050;-67
2023/11/12 02:08:03;;;;;;;2.08;1.50;;;4.60;99.90;;;;;;5004940;28;20498;-67
2023/11/12 02:10:35;;;;;;;2.25;1.33;;;4.50;99.90;;;;;;4997454;28;20041;-67
2023/11/12 02:13:03;;;;;;;2.03;1.63;;;4.50;99.90;;;;;;5003326;28;20305;-67
2023/11/12 02:15:29;;;;;;;2.47;1.88;;;4.40;99.90;;;;;;5032207;28;20100;-67
2023/11/12 02:17:55;;;;;;;3.38;1.85;;;4.50;99.90;;;;;;5004263;28;20038;-66
2023/11/12 02:20:20;;;;;;;1.20;1.05;;;4.40;99.90;;;;;;5030337;28;20537;-67
2023/11/12 02:22:46;;;;;;;2.03;1.48;;;4.40;99.90;;;;;;5037846;28;20057;-67
2023/11/12 02:25:15;;;;;;;2.67;2.00;;;4.30;99.90;;;;;;5036084;28;20394;-67
2023/11/12 02:27:44;;;;;;;2.90;2.00;;;4.30;99.90;;;;;;5003380;28;20429;-67
2023/11/12 02:30:11;;;;;;;3.15;2.03;;;4.30;99.90;;;;;;4996657;28;20042;-66
2023/11/12 02:32:37;;;;;;;3.03;1.83;;;4.30;99.90;;;;;;5037715;28;20049;-66
2023/11/12 02:35:04;;;;;;;2.40;1.48;;;4.30;99.90;;;;;;5020833;28;20042;-66
2023/11/12 02:37:30;;;;;;;1.80;1.40;;;4.20;99.90;;;;;;5037419;28;20042;-66
2023/11/12 02:39:57;;;;;;;2.17;1.42;;;4.10;99.90;;;;;;5003106;28;20046;-66
2023/11/12 02:42:23;;;;;;;3.33;2.17;;;4.10;99.90;;;;;;5006327;28;20371;-66
2023/11/12 02:44:49;;;;;;;2.35;1.98;;;4.10;99.90;;;;;;5007004;28;20038;-66
2023/11/12 02:47:15;;;;;;;1.75;1.38;;;4.00;99.90;;;;;;5032174;28;20605;-67
2023/11/12 02:50:07;;;;;;;2.53;1.80;;;4.00;99.90;;;;;;5002703;28;20204;-66
2023/11/12 02:52:34;;;;;;;1.63;1.35;;;4.00;99.90;;;;;;5002632;28;20139;-66
2023/11/12 02:54:59;;;;;;;1.88;1.20;;;4.00;99.90;;;;;;5001641;28;20154;-66
2023/11/12 02:57:27;;;;;;;2.08;1.73;;;4.00;99.90;;;;;;4996636;28;20461;-66
2023/11/12 02:59:53;;;;;;;1.30;1.08;;;4.00;99.90;;;;;;5002194;28;20058;-66
2023/11/12 03:02:19;;;;;;;1.95;1.65;;;3.90;99.90;;;;;;5000739;28;20034;-67
2023/11/12 03:04:47;;;;;;;1.58;1.40;;;3.90;99.90;;;;;;5037378;28;20049;-67
2023/11/12 03:07:12;;;;;;;1.65;1.38;;;4.00;99.90;;;;;;5037057;28;20100;-66
2023/11/12 03:09:38;;;;;;;1.92;1.10;;;3.90;99.90;;;;;;5002842;28;20038;-66
2023/11/12 03:12:04;;;;;;;2.17;1.60;;;3.90;99.90;;;;;;5004143;28;20505;-67
2023/11/12 03:14:33;;;;;;;2.72;1.88;;;3.90;99.90;;;;;;5032072;28;20038;-66
2023/11/12 03:16:59;;;;;;;2.67;1.75;;;3.90;99.90;;;;;;5003920;28;20450;-66
2023/11/12 03:19:25;;;;;;;2.60;1.90;;;3.90;99.90;;;;;;5007745;28;20117;-67
2023/11/12 03:21:55;;;;;;;2.33;1.52;;;3.90;99.90;;;;;;5036229;28;20045;-67
2023/11/12 03:24:22;;;;;;;5.40;1.85;;;3.90;99.90;;;;;;5008684;28;20076;-66
2023/11/12 03:26:50;;;;;;;1.23;1.13;;;3.80;99.90;;;;;;4999738;28;20117;-66
2023/11/12 03:29:17;;;;;;;1.38;1.17;;;3.80;99.90;;;;;;5009101;28;20758;-67
2023/11/12 03:31:44;;;;;;;2.72;1.58;;;3.90;99.90;;;;;;5005537;28;20137;-67
2023/11/12 03:34:10;;;;;;;1.65;1.55;;;3.90;99.90;;;;;;5003303;28;20087;-66
2023/11/12 03:36:37;;;;;;;2.83;2.03;;;3.90;99.90;;;;;;5048502;28;20144;-67
2023/11/12 03:39:03;;;;;;;1.80;1.27;;;3.90;99.90;;;;;;5039985;28;20045;-66
2023/11/12 03:41:29;;;;;;;2.60;2.15;;;4.00;99.90;;;;;;5001611;28;20042;-65
2023/11/12 03:43:54;;;;;;;2.88;2.22;;;4.00;99.90;;;;;;5007379;28;20038;-65
2023/11/12 03:46:20;;;;;;;1.13;1.02;;;4.00;99.90;;;;;;4997150;28;20642;-66
2023/11/12 03:48:46;;;;;;;2.50;1.55;;;4.00;99.90;;;;;;5005976;28;20033;-66
2023/11/12 03:51:12;;;;;;;1.95;1.63;;;4.00;99.90;;;;;;5000698;28;20109;-66
2023/11/12 03:53:37;;;;;;;2.50;1.55;;;3.90;99.90;;;;;;5003804;28;20140;-66
2023/11/12 03:56:03;;;;;;;2.00;1.63;;;4.00;99.90;;;;;;4997595;28;20034;-66
2023/11/12 03:58:30;;;;;;;1.73;1.40;;;4.00;99.90;;;;;;4998744;28;20076;-66
2023/11/12 04:00:57;;;;;;;2.08;1.67;;;3.90;99.90;;;;;;5035244;28;20120;-66
2023/11/12 04:03:22;;;;;;;2.65;1.63;;;3.90;99.90;;;;;;5003192;28;20046;-66
2023/11/12 04:05:48;;;;;;;7.53;1.88;;;3.90;99.90;;;;;;4999270;28;20084;-66
2023/11/12 04:08:14;;;;;;;2.78;1.58;;;3.80;99.90;;;;;;5000915;28;20034;-65
2023/11/12 04:10:40;;;;;;;1.67;1.17;;;3.90;99.90;;;;;;5032488;28;20371;-66
2023/11/12 04:13:07;;;;;;;2.08;1.48;;;3.70;99.90;;;;;;5000934;28;20073;-66
2023/11/12 04:15:32;;;;;;;1.38;1.17;;;3.70;99.90;;;;;;4998825;28;20038;-66
2023/11/12 04:17:58;;;;;;;1.80;1.30;;;3.60;99.90;;;;;;5055630;28;20045;-66
2023/11/12 04:20:28;;;;;;;2.35;1.85;;;3.60;99.90;;;;;;4997882;28;20103;-66
2023/11/12 04:22:57;;;;;;;1.25;1.15;;;3.50;99.90;;;;;;5001891;28;20071;-66
2023/11/12 04:25:23;;;;;;;2.08;1.75;;;3.50;99.90;;;;;;5019665;28;20054;-66
2023/11/12 04:27:49;;;;;;;2.38;1.00;;;3.50;99.90;;;;;;5005357;28;20038;-66
2023/11/12 04:30:16;;;;;;;1.02;0.77;;;3.40;99.90;;;;;;5005454;28;20057;-66
2023/11/12 04:32:44;;;;;;;2.10;1.50;;;3.40;99.90;;;;;;5005839;28;20338;-66
2023/11/12 04:35:11;;;;;;;2.13;1.73;;;3.40;99.90;;;;;;5002885;28;20038;-66
2023/11/12 04:37:38;;;;;;;1.25;0.98;;;3.30;99.90;;;;;;5006280;28;20046;-66
2023/11/12 04:40:04;;;;;;;1.65;1.52;;;3.30;99.90;;;;;;5000154;28;20132;-66
2023/11/12 04:42:30;;;;;;;1.20;0.93;;;3.30;99.90;;;;;;5005079;28;20041;-65
2023/11/12 04:44:56;;;;;;;1.65;1.27;;;3.30;99.90;;;;;;5002252;28;20049;-66
2023/11/12 04:47:21;;;;;;;2.50;2.17;;;3.30;99.90;;;;;;5020534;28;20494;-65
2023/11/12 04:49:47;;;;;;;2.40;1.92;;;3.30;99.90;;;;;;5006195;28;20425;-65
2023/11/12 04:52:13;;;;;;;1.95;1.38;;;3.30;99.90;;;;;;4998506;28;20082;-65
2023/11/12 04:54:38;;;;;;;2.05;1.42;;;3.30;99.90;;;;;;5005088;28;20058;-66
2023/11/12 04:57:04;;;;;;;11.57;1.33;;;3.30;99.90;;;;;;5034602;28;20070;-65
2023/11/12 04:59:30;;;;;;;2.92;1.65;;;3.30;99.90;;;;;;5000051;28;20121;-66
2023/11/12 05:01:56;;;;;;;3.75;2.40;;;3.40;99.90;;;;;;5004225;28;20049;-65
2023/11/12 05:04:21;;;;;;;1.95;1.23;;;3.30;99.90;;;;;;5002211;28;20053;-65
2023/11/12 05:06:47;;;;;;;14.90;1.48;;;3.40;99.90;;;;;;5002463;28;20454;-65
2023/11/12 05:09:13;;;;;;;0.57;0.55;;;3.40;99.90;;;;;;5030393;28;20049;-66
2023/11/12 05:11:39;;;;;;;1.27;1.00;;;3.40;99.90;;;;;;5002541;28;20486;-66
2023/11/12 05:14:04;;;;;;;1.52;1.33;;;3.50;99.90;;;;;;5001923;28;20035;-66
2023/11/12 05:16:30;;;;;;;0.90;0.57;;;3.60;99.90;;;;;;5003474;28;20050;-65
2023/11/12 05:18:56;;;;;;;7.07;1.02;;;3.70;99.90;;;;;;5002782;28;20121;-66
2023/11/12 05:21:22;;;;;;;1.90;1.30;;;3.70;99.90;;;;;;5005913;28;20089;-65
2023/11/12 05:23:47;;;;;;;1.00;0.80;;;3.80;99.90;;;;;;5010045;28;20088;-66
2023/11/12 05:26:16;;;;;;;1.65;1.27;;;3.80;99.90;;;;;;5009198;28;20041;-66
2023/11/12 05:28:42;;;;;;;1.50;0.88;;;3.90;99.90;;;;;;5005039;28;20169;-67
2023/11/12 05:31:09;;;;;;;1.33;0.90;;;3.90;99.90;;;;;;5007685;28;20066;-66
2023/11/12 05:33:35;;;;;;;1.20;1.10;;;3.90;99.90;;;;;;5004776;28;20050;-66
2023/11/12 05:36:00;;;;;;;1.83;1.35;;;3.90;99.90;;;;;;5004367;28;20045;-66
2023/11/12 05:38:26;;;;;;;9.40;0.98;;;4.00;99.90;;;;;;5036081;28;20397;-66
2023/11/12 05:40:52;;;;;;;1.67;1.30;;;4.00;99.90;;;;;;4998071;28;20185;-66
2023/11/12 05:43:18;;;;;;;1.35;0.98;;;4.10;99.90;;;;;;5006756;28;20077;-67
2023/11/12 05:45:44;;;;;;;2.60;1.63;;;4.10;99.90;;;;;;5007684;28;20078;-66
2023/11/12 05:48:10;;;;;;;1.33;1.13;;;4.10;99.90;;;;;;5031916;28;20101;-66
2023/11/12 05:50:37;;;;;;;0.93;0.80;;;4.10;99.90;;;;;;4997440;28;20034;-66
2023/11/12 05:53:03;;;;;;;2.80;1.92;;;4.10;99.90;;;;;;5030962;28;20061;-66
2023/11/12 05:55:28;;;;;;;2.50;1.67;;;4.10;99.90;;;;;;5005518;28;20092;-66
2023/11/12 05:57:54;;;;;;;2.50;2.03;;;4.10;99.90;;;;;;4996717;28;20425;-66
2023/11/12 06:00:20;;;;;;;3.53;1.60;;;4.20;99.90;;;;;;5036833;28;20123;-66
2023/11/12 06:02:46;;;;;;;1.70;1.33;;;4.20;99.90;;;;;;5007475;28;20544;-66
2023/11/12 06:05:12;;;;;;;3.20;1.60;;;4.20;99.90;;;;;;5006694;28;20124;-66
2023/11/12 06:07:38;;;;;;;2.10;1.70;;;4.10;99.90;;;;;;4999108;28;20126;-66
2023/11/12 06:10:04;;;;;;;2.70;1.50;;;4.20;99.90;;;;;;5002358;28;20099;-66
2023/11/12 06:12:30;;;;;;;1.70;1.27;;;4.20;99.90;;;;;;5003361;28;20149;-66
2023/11/12 06:14:56;;;;;;;2.03;1.27;;;4.20;99.90;;;;;;5002875;28;20116;-66
2023/11/12 06:17:24;;;;;;;1.80;1.63;;;4.20;99.90;;;;;;5001460;28;20121;-66
2023/11/12 06:19:51;;;;;;;2.53;1.33;;;4.20;99.90;;;;;;5001569;28;20071;-66
2023/11/12 06:22:17;;;;;;;1.98;1.50;;;4.30;99.90;;;;;;5002510;28;20053;-66
2023/11/12 06:24:42;;;;;;;2.28;1.77;;;4.30;99.90;;;;;;5005887;28;20038;-66
2023/11/12 06:27:08;;;;;;;1.80;1.30;;;4.30;99.90;;;;;;5032783;28;20088;-66
2023/11/12 06:29:35;;;;;;;1.23;1.13;;;4.30;99.90;;;;;;5006882;28;20038;-66
2023/11/12 06:32:02;;;;;;;2.88;2.13;;;4.30;99.90;;;;;;5006403;28;20049;-66
2023/11/12 06:34:28;;;;;;;1.27;0.88;;;4.30;99.90;;;;;;5004003;28;20401;-66
2023/11/12 06:36:53;;;;;;;1.65;1.20;;;4.30;99.90;;;;;;5002087;28;20038;-66
2023/11/12 06:39:19;;;;;;;3.03;2.60;;;4.30;99.90;;;;;;5009018;28;20034;-66
2023/11/12 06:41:45;;;;;;;2.58;1.38;;;4.30;99.90;;;;;;4999958;28;20129;-66
2023/11/12 06:44:11;;;;;;;2.33;1.55;;;4.30;99.90;;;;;;5006019;28;20465;-66
2023/11/12 06:46:42;;;;;;;7.15;2.20;;;4.40;99.90;;;;;;4997599;28;20098;-66
2023/11/12 06:49:08;;;;;;;3.47;2.33;;;4.40;99.90;;;;;;5003899;28;20046;-66
2023/11/12 06:51:33;;;;;;;2.20;1.65;;;4.40;99.90;;;;;;5004066;28;20427;-66
2023/11/12 06:53:59;;;;;;;3.00;2.10;;;4.40;99.90;;;;;;4997340;28;20054;-66
2023/11/12 06:56:30;;;;;;;1.98;1.45;;;4.40;99.90;;;;;;4998604;28;20506;-66
2023/11/12 06:58:56;;;;;;;2.38;1.73;;;4.40;99.90;;;;;;5005499;28;20065;-66
2023/11/12 07:01:23;;;;;;;3.33;1.75;;;4.40;99.90;;;;;;5034287;28;20077;-66
2023/11/12 07:03:48;;;;;;;2.25;1.55;;;4.40;99.90;;;;;;5004254;28;20045;-66
2023/11/12 07:06:14;;;;;;;2.25;1.42;;;4.30;99.90;;;;;;5005155;28;20104;-66
2023/11/12 07:08:41;;;;;;;2.03;1.63;;;4.30;99.90;;;;;;5000061;28;20445;-66
2023/11/12 07:11:07;;;;;;;0.85;0.75;;;4.20;99.90;;;;;;5004716;28;20042;-66
2023/11/12 07:13:32;;;;;;;1.33;0.93;;;4.20;99.90;;;;;;5036480;28;20042;-66
2023/11/12 07:15:59;;;;;;;4.78;1.63;;;4.20;99.90;;;;;;4996888;28;20046;-66
2023/11/12 07:18:25;;;;;;;2.42;1.23;;;4.20;99.90;;;;;;4999713;28;20556;-66
2023/11/12 07:20:51;;;;;;;2.35;1.70;;;4.20;99.90;;;;;;5001525;28;20045;-66
2023/11/12 07:23:17;;;;;;;2.80;1.90;;;4.20;99.90;;;;;;5000210;28;20050;-66
2023/11/12 07:25:43;;;;;;;9.90;2.10;;;4.20;99.90;;;;;;4999668;28;20064;-66
2023/11/12 07:28:09;;;;;;;2.33;1.73;;;4.20;99.90;;;;;;5035086;28;20482;-66
2023/11/12 07:30:37;;;;;;;1.50;1.33;;;4.30;99.90;;;;;;5003773;28;20041;-66
2023/11/12 07:33:05;;;;;;;15.50;1.38;;;4.20;99.90;;;;;;5030957;28;20046;-66
2023/11/12 07:35:32;;;;;;;4.60;1.15;;;4.30;99.90;;;;;;5004502;28;20577;-66
2023/11/12 07:37:58;;;;;;;4.00;1.67;;;4.30;99.90;;;;;;4999456;28;20093;-66
2023/11/12 07:40:26;;;;;;;25.25;12.50;;;4.30;99.90;;;;;;5000258;28;20056;-66
2023/11/12 07:42:53;;;;;;;6.68;1.63;;;4.30;99.90;;;;;;4999927;28;20597;-66
2023/11/12 07:45:19;;;;;;;23.98;1.50;;;4.30;99.90;;;;;;5035313;28;20337;-66
2023/11/12 07:47:45;;;;;;;3.17;1.20;;;4.30;99.90;;;;;;5004322;28;20474;-66
2023/11/12 07:50:11;;;;;;;1.10;0.73;;;4.40;99.90;;;;;;5002405;28;20498;-66
2023/11/12 07:52:37;;;;;;;1.77;1.48;;;4.40;99.90;;;;;;5034006;28;20081;-66
2023/11/12 07:55:05;;;;;;;1.52;1.15;;;4.40;99.90;;;;;;5001948;28;20080;-66
2023/11/12 07:57:32;;;;;;;1.52;1.30;;;4.50;99.90;;;;;;5021212;28;20462;-66
2023/11/12 07:59:58;;;;;;;3.08;1.92;;;4.60;99.90;;;;;;5015841;28;20049;-66
2023/11/12 08:02:24;;;;;;;2.15;1.30;;;4.60;99.90;;;;;;5035884;28;20038;-66
2023/11/12 08:04:50;;;;;;;3.78;1.27;;;4.60;99.90;;;;;;5032649;28;20096;-66
2023/11/12 08:07:16;;;;;;;1.27;0.90;;;4.70;99.90;;;;;;5001452;28;20041;-66
2023/11/12 08:09:46;;;;;;;1.77;1.00;;;4.80;99.90;;;;;;5007820;28;20046;-66
2023/11/12 08:12:13;;;;;;;2.35;1.35;;;5.00;99.90;;;;;;5031758;28;20053;-66
2023/11/12 08:14:40;;;;;;;2.75;1.42;;;5.10;99.90;;;;;;5001966;28;20104;-66
2023/11/12 08:17:05;;;;;;;1.83;1.33;;;5.00;99.90;;;;;;5032900;28;20072;-66
2023/11/12 08:19:31;;;;;;;1.63;1.38;;;5.10;99.90;;;;;;5000373;28;20042;-66
2023/11/12 08:21:57;;;;;;;1.63;1.50;;;5.10;99.90;;;;;;5000683;28;20528;-66
2023/11/12 08:24:25;;;;;;;3.30;1.45;;;5.10;99.90;;;;;;5004854;28;20120;-66
2023/11/12 08:26:50;;;;;;;3.60;1.90;;;5.00;99.90;;;;;;5003134;28;20671;-66
2023/11/12 08:29:16;;;;;;;2.95;2.42;;;5.20;99.90;;;;;;5009028;28;20516;-66
2023/11/12 08:31:43;;;;;;;2.72;1.33;;;5.20;99.90;;;;;;5003504;28;20049;-66
2023/11/12 08:34:09;;;;;;;7.13;2.30;;;5.20;99.90;;;;;;5052245;28;20065;-66
2023/11/12 08:36:34;;;;;;;9.15;2.45;;;5.30;99.90;;;;;;5004197;28;20034;-66
2023/11/12 08:39:03;;;;;;;2.47;2.10;;;5.30;99.90;;;;;;5035428;28;20038;-66
2023/11/12 08:41:29;;;;;;;12.65;1.70;;;5.30;99.90;;;;;;5031843;28;20525;-66
2023/11/12 08:43:56;;;;;;;3.70;2.22;;;5.40;99.90;;;;;;5006119;28;20042;-66
2023/11/12 08:46:23;;;;;;;2.55;1.25;;;5.60;99.90;;;;;;5021648;28;20415;-66
2023/11/12 08:48:49;;;;;;;2.40;1.70;;;5.70;99.90;;;;;;4999296;28;20089;-66
2023/11/12 08:51:14;;;;;;;18.92;2.42;;;5.70;99.90;;;;;;5003171;28;20072;-67
2023/11/12 08:53:40;;;;;;;18.33;2.75;;;5.70;99.90;;;;;;5007137;28;20062;-67
2023/11/12 08:56:10;;;;;;;2.40;1.55;;;5.70;99.90;;;;;;5009784;28;20040;-64
2023/11/12 08:58:36;;;;;;;2.50;2.05;;;5.80;99.90;;;;;;5004159;28;20121;-65
2023/11/12 09:01:03;;;;;;;2.92;2.40;;;5.80;99.90;;;;;;4999097;28;20125;-66
2023/11/12 09:03:31;;;;;;;2.28;1.42;;;5.90;99.90;;;;;;5005585;28;20046;-66
2023/11/12 09:05:56;;;;;;;3.70;1.88;;;5.90;99.90;;;;;;5001587;28;20409;-66
2023/11/12 09:08:22;;;;;;;2.72;1.55;;;6.00;99.90;;;;;;5002320;28;20042;-66
2023/11/12 09:10:48;;;;;;;2.03;1.70;;;6.10;99.90;;;;;;5005343;28;20392;-67
2023/11/12 09:13:13;;;;;;;2.97;2.08;;;6.10;99.90;;;;;;5008670;28;20052;-67
2023/11/12 09:15:39;;;;;;;2.22;1.70;;;6.20;99.90;;;;;;5008659;28;20061;-67
2023/11/12 09:18:05;;;;;;;3.20;2.22;;;6.30;99.90;;;;;;5001903;28;20160;-67
2023/11/12 09:20:44;;;;;;;2.75;2.08;;;6.40;99.90;;;;;;5007317;28;20041;-66
2023/11/12 09:23:13;;;;;;;3.20;2.00;;;6.40;99.90;;;;;;5040554;28;20138;-66
2023/11/12 09:25:40;;;;;;;3.35;2.00;;;6.50;99.90;;;;;;5009464;28;20064;-67
2023/11/12 09:28:11;;;;;;;1.70;1.40;;;6.50;99.90;;;;;;5037796;28;20041;-67
2023/11/12 09:30:40;;;;;;;4.93;1.92;;;6.50;99.90;;;;;;5035358;28;20049;-66
2023/11/12 09:33:14;;;;;;;2.42;1.85;;;6.60;99.90;;;;;;5041198;28;20037;-66
2023/11/12 09:35:44;;;;;;;2.20;1.70;;;6.70;99.90;;;;;;5038771;28;20495;-66
2023/11/12 09:38:15;;;;;;;4.18;1.88;;;6.90;99.90;;;;;;5004806;28;20034;-66
2023/11/12 09:40:45;;;;;;;3.22;1.55;;;7.20;99.90;;;;;;5037368;28;20049;-66
2023/11/12 09:43:12;;;;;;;2.35;1.80;;;7.30;99.90;;;;;;5037492;28;20490;-66
2023/11/12 09:45:56;;;;;;;3.17;1.92;;;7.40;99.90;;;;;;5010156;28;20042;-66
2023/11/12 09:52:07;;;;;;;3.20;2.17;;;7.30;99.90;;;;;;5002157;28;20041;-67
2023/11/12 09:54:58;;;;;;;2.22;1.80;;;7.20;99.90;;;;;;5036336;28;20058;-66
2023/11/12 09:57:33;;;;;;;2.85;2.05;;;7.10;99.90;;;;;;4999947;28;20482;-66
2023/11/12 10:00:06;;;;;;;2.88;2.00;;;7.10;99.90;;;;;;5037226;28;20129;-66
2023/11/12 10:02:52;;;;;;;9.80;5.88;;;7.10;99.90;;;;;;5050193;28;20418;-66
2023/11/12 10:05:40;;;;;;;3.03;2.15;;;7.00;99.90;;;;;;5005209;28;20947;-67
2023/11/12 10:08:36;;;;;;;2.13;1.63;;;7.00;99.90;;;;;;5005058;28;20119;-67
2023/11/12 10:11:33;;;;;;;3.50;2.45;;;7.00;99.90;;;;;;4992943;28;20074;-67
2023/11/12 10:14:24;;;;;;;3.00;2.30;;;7.00;99.90;;;;;;5003855;28;20120;-66
2023/11/12 10:17:11;;;;;;;3.28;2.25;;;6.90;99.90;;;;;;5029242;28;20053;-67
2023/11/12 10:19:56;;;;;;;2.35;1.67;;;7.00;99.90;;;;;;5002660;28;20038;-67
2023/11/12 10:22:44;;;;;;;2.60;1.77;;;7.00;99.90;;;;;;5002264;28;20038;-67
2023/11/12 10:25:13;;;;;;;3.25;2.33;;;7.10;99.90;;;;;;4998743;28;20502;-67
2023/11/12 10:27:56;;;;;;;2.70;1.83;;;7.10;99.90;;;;;;4998644;28;20375;-66
2023/11/12 10:30:23;;;;;;;3.33;1.83;;;7.20;99.90;;;;;;5004608;28;20398;-66
2023/11/12 10:32:48;;;;;;;2.97;1.60;;;7.20;99.90;;;;;;5004727;28;20045;-67
2023/11/12 10:35:30;;;;;;;4.22;2.75;;;7.30;99.90;;;;;;5028140;28;20034;-67
2023/11/12 10:38:02;;;;;;;2.90;1.98;;;7.40;99.90;;;;;;5003509;28;20034;-67
2023/11/12 10:40:28;;;;;;;3.75;2.47;;;7.30;99.90;;;;;;5006710;28;20040;-67
2023/11/12 10:43:05;;;;;;;3.30;2.33;;;7.30;99.90;;;;;;5003681;28;20046;-67
2023/11/12 10:45:35;;;;;;;2.30;1.73;;;7.40;99.90;;;;;;5006345;28;20132;-67
2023/11/12 10:48:05;;;;;;;3.35;2.13;;;7.40;99.90;;;;;;5037603;28;20124;-67
2023/11/12 10:50:31;;;;;;;3.92;2.45;;;7.50;99.90;;;;;;5004601;28;20037;-67
2023/11/12 10:52:58;;;;;;;2.78;2.00;;;7.50;99.90;;;;;;5002605;28;20054;-67
2023/11/12 10:55:25;;;;;;;2.88;1.73;;;7.50;99.90;;;;;;5003932;28;20042;-67
2023/11/12 10:57:52;;;;;;;4.35;2.45;;;7.50;99.90;;;;;;5043026;28;20509;-67
2023/11/12 11:00:22;;;;;;;4.53;2.65;;;7.50;99.90;;;;;;5035095;28;20038;-67
2023/11/12 11:02:51;;;;;;;3.92;2.25;;;7.60;99.90;;;;;;5002539;28;20034;-67
2023/11/12 11:05:17;;;;;;;5.22;2.97;;;7.60;99.90;;;;;;5001970;28;20100;-67
2023/11/12 11:07:48;;;;;;;2.95;2.28;;;7.80;99.90;;;;;;5005768;28;20346;-67
2023/11/12 11:10:15;;;;;;;4.65;2.72;;;8.00;99.90;;;;;;5036253;28;20535;-67
2023/11/12 11:12:42;;;;;;;3.75;2.13;;;8.10;99.90;;;;;;5030971;28;20046;-67
2023/11/12 11:15:42;;;;;;;6.35;2.28;;;8.10;99.90;;;;;;5003874;28;20038;-67
2023/11/12 11:18:31;;;;;;;6.30;2.78;;;8.10;99.90;;;;;;5039160;28;20497;-67
2023/11/12 11:21:17;;;;;;;2.78;2.03;;;8.10;99.90;;;;;;5032466;28;20045;-67
2023/11/12 11:23:49;;;;;;;4.60;3.20;;;8.10;99.90;;;;;;5049670;28;20457;-67
2023/11/12 11:26:26;;;;;;;4.35;2.40;;;8.10;99.90;;;;;;5004458;28;20040;-68
2023/11/12 11:29:10;;;;;;;4.40;2.95;;;8.20;99.90;;;;;;5007919;28;20546;-67
2023/11/12 11:31:40;;;;;;;3.88;2.40;;;8.10;99.90;;;;;;5026785;28;20042;-67
2023/11/12 11:34:15;;;;;;;4.15;3.42;;;8.10;99.90;;;;;;5006138;28;20080;-67
2023/11/12 11:36:58;;;;;;;4.18;2.40;;;8.00;99.90;;;;;;5004927;28;20427;-67
2023/11/12 11:39:26;;;;;;;4.85;3.28;;;8.10;99.90;;;;;;5018191;28;20078;-67
2023/11/12 11:41:52;;;;;;;3.47;2.92;;;8.00;99.90;;;;;;5033575;28;20050;-67
2023/11/12 11:44:42;;;;;;;7.07;3.40;;;8.10;99.90;;;;;;5001651;28;20050;-67
2023/11/12 11:47:15;;;;;;;5.93;3.22;;;8.00;99.90;;;;;;5006577;28;20153;-73
2023/11/12 11:49:56;;;;;;;6.05;2.92;;;8.10;99.90;;;;;;5037285;28;20042;-72
2023/11/12 11:52:27;;;;;;;7.18;3.65;;;8.10;99.90;;;;;;5032709;28;20065;-72
2023/11/12 11:55:15;;;;;;;4.03;3.28;;;8.20;99.90;;;;;;5020826;28;20076;-73
2023/11/12 11:57:50;;;;;;;5.28;3.17;;;8.30;99.90;;;;;;4999411;28;20470;-72
2023/11/12 12:00:17;;;;;;;5.18;3.45;;;8.50;99.90;;;;;;5033468;28;20030;-73
2023/11/12 12:02:44;;;;;;;5.57;3.20;;;8.50;99.90;;;;;;5031968;28;20050;-73
2023/11/12 12:05:10;;;;;;;5.32;3.08;;;8.60;99.90;;;;;;5014481;28;20053;-71
2023/11/12 12:07:39;;;;;;;5.55;3.25;;;8.60;99.90;;;;;;5013942;28;20083;-72
2023/11/12 12:10:05;;;;;;;6.30;3.03;;;8.60;99.90;;;;;;4994648;28;20046;-74
2023/11/12 12:12:31;;;;;;;7.78;4.15;;;8.60;99.90;;;;;;5004160;28;20127;-73
2023/11/12 12:14:57;;;;;;;7.90;3.33;;;8.60;99.90;;;;;;5033010;28;20510;-73
2023/11/12 12:17:23;;;;;;;5.90;3.25;;;8.60;99.90;;;;;;5003152;28;20474;-72
2023/11/12 12:20:15;;;;;;;6.70;3.58;;;8.60;99.90;;;;;;5043580;28;20459;-73
2023/11/12 12:22:42;;;;;;;8.40;3.53;;;8.50;99.90;;;;;;5009853;28;20263;-71
2023/11/12 12:25:09;;;;;;;5.40;3.80;;;8.40;99.90;;;;;;5007491;28;20060;-67
2023/11/12 12:27:34;;;;;;;7.82;3.08;;;8.40;99.90;;;;;;5002125;28;20163;-68
2023/11/12 12:30:00;;;;;;;7.25;3.85;;;8.40;99.90;;;;;;5012278;28;20116;-67
2023/11/12 12:32:27;;;;;;;7.13;3.80;;;8.40;99.90;;;;;;5006569;28;20104;-67
2023/11/12 12:34:57;;;;;;;4.70;3.70;;;8.40;99.90;;;;;;5013628;28;20065;-67
2023/11/12 12:37:28;;;;;;;3.92;2.90;;;8.40;99.90;;;;;;5003486;28;20077;-67
2023/11/12 12:40:10;;;;;;;5.25;3.97;;;8.40;99.90;;;;;;5044460;28;20049;-67
2023/11/12 12:42:36;;;;;;;3.83;3.13;;;8.40;99.90;;;;;;5011375;28;20042;-67
2023/11/12 12:45:10;;;;;;;4.85;3.22;;;8.50;99.90;;;;;;5010649;28;20061;-67
2023/11/12 12:47:39;;;;;;;6.07;3.57;;;8.40;99.90;;;;;;5013433;28;20565;-67
2023/11/12 12:50:32;;;;;;;4.90;3.50;;;8.40;99.90;;;;;;5006231;28;20073;-67
2023/11/12 12:56:09;;;;;;;3.30;2.80;;;8.60;99.90;;;;;;5011846;28;20072;-67
2023/11/12 12:58:38;;;;;;;5.72;3.25;;;8.70;99.90;;;;;;5001807;28;20078;-67
2023/11/12 13:01:04;;;;;;;4.53;3.10;;;8.70;99.90;;;;;;5002005;28;20103;-67
2023/11/12 13:03:34;;;;;;;4.88;3.67;;;8.90;99.90;;;;;;5005668;28;20398;-67
2023/11/12 13:06:00;;;;;;;4.80;3.67;;;9.00;99.90;;;;;;5002046;28;20951;-67
2023/11/12 13:08:27;;;;;;;7.07;4.63;;;9.20;99.90;;;;;;5001498;28;20117;-67
2023/11/12 13:10:54;;;;;;;6.78;4.25;;;9.30;99.90;;;;;;5008297;28;20182;-67